createdAt,value
2018-09-21T00:00:47.644Z,20.60
2018-09-21T00:03:21.720Z,20.30
2018-09-21T00:05:55.541Z,20.00
2018-09-21T00:08:29.553Z,19.90
2018-09-21T00:11:03.593Z,19.80
2018-09-21T00:13:37.697Z,20.20
2018-09-21T00:16:11.805Z,20.40
2018-09-21T00:18:45.820Z,20.40
2018-09-21T00:21:19.905Z,20.30
2018-09-21T00:23:53.945Z,20.40
2018-09-21T00:26:27.999Z,20.40
2018-09-21T00:29:02.067Z,20.50
2018-09-21T00:31:36.074Z,20.50
2018-09-21T00:34:10.089Z,20.20
2018-09-21T00:36:44.205Z,20.40
2018-09-21T00:39:18.209Z,20.20
2018-09-21T00:41:52.301Z,20.20
2018-09-21T00:44:26.270Z,20.20
2018-09-21T00:47:00.285Z,20.20
2018-09-21T00:49:34.293Z,19.90
2018-09-21T00:52:08.382Z,19.80
2018-09-21T00:54:42.490Z,19.60
2018-09-21T00:57:16.518Z,19.90
2018-09-21T00:59:50.634Z,19.70
2018-09-21T01:02:24.654Z,19.60
2018-09-21T01:04:58.637Z,19.60
2018-09-21T01:07:32.638Z,19.80
2018-09-21T01:10:07.487Z,19.60
2018-09-21T01:12:41.383Z,19.60
2018-09-21T01:15:16.120Z,19.60
2018-09-21T01:17:50.069Z,19.50
2018-09-21T01:20:24.129Z,19.50
2018-09-21T01:22:58.256Z,19.30
2018-09-21T01:25:32.262Z,19.40
2018-09-21T01:28:06.297Z,19.10
2018-09-21T01:30:40.294Z,19.10
2018-09-21T01:33:14.414Z,19.10
2018-09-21T01:35:48.398Z,19.00
2018-09-21T01:38:23.249Z,19.20
2018-09-21T01:40:57.163Z,19.20
2018-09-21T01:43:31.068Z,19.10
2018-09-21T01:46:05.245Z,19.20
2018-09-21T01:48:39.270Z,19.50
2018-09-21T01:51:13.403Z,19.50
2018-09-21T01:53:47.273Z,19.30
2018-09-21T01:56:21.395Z,19.50
2018-09-21T01:58:55.488Z,19.40
2018-09-21T02:01:29.451Z,19.70
2018-09-21T02:04:04.183Z,19.60
2018-09-21T02:06:38.072Z,19.60
2018-09-21T02:09:12.093Z,19.70
2018-09-21T02:11:46.149Z,19.40
2018-09-21T02:14:20.207Z,19.50
2018-09-21T02:16:54.962Z,19.20
2018-09-21T02:19:28.965Z,19.20
2018-09-21T02:22:03.040Z,19.30
2018-09-21T02:24:37.090Z,19.20
2018-09-21T02:27:11.098Z,19.10
2018-09-21T02:29:45.217Z,18.90
2018-09-21T02:32:19.257Z,18.90
2018-09-21T02:34:54.056Z,18.80
2018-09-21T02:37:27.991Z,18.80
2018-09-21T02:40:01.982Z,18.90
2018-09-21T02:42:35.994Z,18.80
2018-09-21T02:45:10.819Z,19.10
2018-09-21T02:47:45.542Z,19.20
2018-09-21T02:50:20.186Z,19.30
2018-09-21T02:52:54.177Z,19.30
2018-09-21T02:55:28.138Z,19.40
2018-09-21T02:58:02.993Z,19.60
2018-09-21T03:00:37.006Z,19.60
2018-09-21T03:03:10.965Z,19.90
2018-09-21T03:05:44.978Z,19.90
2018-09-21T03:08:18.974Z,19.90
2018-09-21T03:10:52.990Z,19.90
2018-09-21T03:13:26.961Z,19.90
2018-09-21T03:16:00.909Z,20.00
2018-09-21T03:18:34.985Z,20.10
2018-09-21T03:21:08.985Z,20.00
2018-09-21T03:23:43.084Z,20.00
2018-09-21T03:26:17.101Z,20.10
2018-09-21T03:28:51.167Z,20.10
2018-09-21T03:31:25.979Z,20.20
2018-09-21T03:33:59.845Z,20.20
2018-09-21T03:36:33.890Z,20.30
2018-09-21T03:39:10.165Z,20.10
2018-09-21T03:41:44.311Z,20.10
2018-09-21T03:44:19.202Z,20.20
2018-09-21T03:46:53.167Z,20.20
2018-09-21T03:49:29.526Z,20.30
2018-09-21T03:52:03.733Z,20.30
2018-09-21T03:54:38.157Z,20.30
2018-09-21T03:57:12.148Z,20.30
2018-09-21T03:59:46.209Z,20.30
2018-09-21T04:02:20.772Z,20.30
2018-09-21T04:04:54.715Z,20.20
2018-09-21T04:07:28.790Z,20.30
2018-09-21T04:10:02.850Z,20.30
2018-09-21T04:12:36.962Z,20.20
2018-09-21T04:15:11.186Z,20.20
2018-09-21T04:17:45.215Z,20.20
2018-09-21T04:20:19.563Z,20.20
2018-09-21T04:22:54.505Z,20.30
2018-09-21T04:25:28.526Z,20.30
2018-09-21T04:28:02.421Z,20.30
2018-09-21T04:30:36.572Z,20.40
2018-09-21T04:33:10.649Z,20.40
2018-09-21T04:35:45.485Z,20.30
2018-09-21T04:38:19.485Z,20.30
2018-09-21T04:40:53.866Z,20.40
2018-09-21T04:43:27.813Z,20.40
2018-09-21T04:46:01.902Z,20.40
2018-09-21T04:48:37.078Z,20.50
2018-09-21T04:51:12.966Z,20.40
2018-09-21T04:53:49.804Z,20.40
2018-09-21T04:56:27.101Z,20.40
2018-09-21T04:59:01.833Z,20.40
2018-09-21T05:01:35.875Z,20.40
2018-09-21T05:04:10.008Z,20.40
2018-09-21T05:06:47.653Z,20.50
2018-09-21T05:09:22.178Z,20.50
2018-09-21T05:11:56.275Z,20.50
2018-09-21T05:14:30.312Z,20.60
2018-09-21T05:17:05.035Z,20.70
2018-09-21T05:19:39.916Z,20.70
2018-09-21T05:22:13.983Z,20.60
2018-09-21T05:24:48.006Z,20.60
2018-09-21T05:27:22.106Z,20.60
2018-09-21T05:29:56.144Z,20.70
2018-09-21T05:32:30.111Z,20.70
2018-09-21T05:35:04.293Z,20.70
2018-09-21T05:37:38.334Z,20.70
2018-09-21T05:40:12.390Z,20.70
2018-09-21T05:42:47.220Z,20.80
2018-09-21T05:45:21.293Z,20.70
2018-09-21T05:47:55.339Z,20.80
2018-09-21T05:50:29.417Z,20.80
2018-09-21T05:53:03.550Z,21.00
2018-09-21T05:55:37.635Z,21.00
2018-09-21T05:58:11.651Z,21.10
2018-09-21T06:00:45.770Z,21.10
2018-09-21T06:03:20.597Z,21.20
2018-09-21T06:05:55.345Z,21.40
2018-09-21T06:08:29.470Z,21.30
2018-09-21T06:11:03.680Z,21.40
2018-09-21T06:13:37.818Z,21.50
2018-09-21T06:16:11.907Z,21.60
2018-09-21T06:18:45.998Z,21.70
2018-09-21T06:21:19.975Z,21.90
2018-09-21T06:23:54.021Z,21.90
2018-09-21T06:26:28.150Z,22.10
2018-09-21T06:29:02.172Z,22.20
2018-09-21T06:31:36.274Z,22.20
2018-09-21T06:34:10.391Z,22.40
2018-09-21T06:36:44.493Z,22.50
2018-09-21T06:39:18.592Z,22.60
2018-09-21T06:41:52.719Z,22.60
2018-09-21T06:44:26.781Z,22.60
2018-09-21T06:47:01.542Z,22.60
2018-09-21T06:49:35.433Z,22.50
2018-09-21T06:52:09.511Z,22.50
2018-09-21T06:54:43.514Z,22.60
2018-09-21T06:57:18.334Z,22.50
2018-09-21T06:59:52.411Z,22.50
2018-09-21T07:02:26.409Z,22.60
2018-09-21T07:05:00.429Z,22.70
2018-09-21T07:07:34.440Z,22.70
2018-09-21T07:10:08.645Z,22.90
2018-09-21T07:12:42.690Z,22.90
2018-09-21T07:15:16.697Z,23.00
2018-09-21T07:17:51.425Z,23.30
2018-09-21T07:20:25.324Z,23.30
2018-09-21T07:23:00.149Z,23.20
2018-09-21T07:25:34.066Z,23.10
2018-09-21T07:28:08.904Z,23.10
2018-09-21T07:30:42.832Z,23.10
2018-09-21T07:33:16.840Z,22.90
2018-09-21T07:35:51.662Z,22.70
2018-09-21T07:38:26.371Z,22.80
2018-09-21T07:41:00.245Z,22.70
2018-09-21T07:43:34.537Z,22.60
2018-09-21T07:46:08.914Z,22.80
2018-09-21T07:48:43.687Z,22.90
2018-09-21T07:51:17.846Z,22.90
2018-09-21T07:53:52.106Z,23.20
2018-09-21T07:56:27.352Z,23.10
2018-09-21T07:59:01.581Z,23.30
2018-09-21T08:01:35.854Z,23.30
2018-09-21T08:04:09.962Z,23.50
2018-09-21T08:06:44.224Z,23.60
2018-09-21T08:09:19.258Z,23.80
2018-09-21T08:11:53.503Z,23.80
2018-09-21T08:14:27.943Z,23.90
2018-09-21T08:17:03.512Z,23.90
2018-09-21T08:19:37.739Z,23.90
2018-09-21T08:22:11.757Z,24.00
2018-09-21T08:24:45.738Z,23.70
2018-09-21T08:27:19.893Z,23.70
2018-09-21T08:29:53.893Z,24.00
2018-09-21T08:32:27.977Z,24.00
2018-09-21T08:35:02.092Z,24.10
2018-09-21T08:37:36.090Z,24.30
2018-09-21T08:40:10.533Z,24.30
2018-09-21T08:42:44.558Z,24.20
2018-09-21T08:45:18.693Z,24.30
2018-09-21T08:47:52.605Z,24.30
2018-09-21T08:50:27.437Z,24.20
2018-09-21T08:53:01.580Z,24.20
2018-09-21T08:55:36.495Z,24.20
2018-09-21T08:58:11.518Z,24.30
2018-09-21T09:00:45.996Z,24.30
2018-09-21T09:03:20.390Z,24.20
2018-09-21T09:05:54.638Z,24.20
2018-09-21T09:08:28.860Z,24.40
2018-09-21T09:11:02.925Z,24.50
2018-09-21T09:13:37.218Z,24.70
2018-09-21T09:16:12.070Z,24.70
2018-09-21T09:18:46.631Z,24.70
2018-09-21T09:21:20.599Z,24.50
2018-09-21T09:23:54.714Z,24.40
2018-09-21T09:26:28.901Z,24.40
2018-09-21T09:29:02.996Z,24.30
2018-09-21T09:31:37.880Z,24.30
2018-09-21T09:34:12.095Z,24.30
2018-09-21T09:36:46.407Z,24.30
2018-09-21T09:39:20.768Z,24.00
2018-09-21T09:41:54.958Z,24.00
2018-09-21T09:44:29.377Z,24.00
2018-09-21T09:47:03.691Z,24.00
2018-09-21T09:49:37.852Z,24.10
2018-09-21T09:52:11.903Z,24.30
2018-09-21T09:54:45.995Z,24.30
2018-09-21T09:57:20.474Z,24.40
2018-09-21T09:59:54.602Z,24.50
2018-09-21T10:02:28.577Z,24.30
2018-09-21T10:05:02.847Z,24.30
2018-09-21T10:07:37.722Z,24.70
2018-09-21T10:10:11.837Z,24.60
2018-09-21T10:12:46.080Z,24.80
2018-09-21T10:15:21.039Z,24.70
2018-09-21T10:17:56.260Z,24.90
2018-09-21T10:20:30.212Z,25.00
2018-09-21T10:23:04.469Z,25.00
2018-09-21T10:25:38.914Z,24.90
2018-09-21T10:28:13.446Z,24.80
2018-09-21T10:30:47.793Z,24.70
2018-09-21T10:33:22.038Z,24.70
2018-09-21T10:35:56.276Z,24.70
2018-09-21T10:38:30.456Z,24.70
2018-09-21T10:41:05.286Z,24.80
2018-09-21T10:43:39.278Z,24.80
2018-09-21T10:46:14.414Z,24.90
2018-09-21T10:48:49.727Z,24.90
2018-09-21T10:51:23.754Z,24.90
2018-09-21T10:53:58.073Z,25.00
2018-09-21T10:56:31.981Z,25.00
2018-09-21T10:59:07.309Z,25.10
2018-09-21T11:01:41.522Z,25.10
2018-09-21T11:04:15.848Z,25.00
2018-09-21T11:06:50.071Z,24.80
2018-09-21T11:09:24.226Z,24.50
2018-09-21T11:11:58.464Z,24.50
2018-09-21T11:14:33.341Z,24.50
2018-09-21T11:17:07.350Z,24.50
2018-09-21T11:19:42.443Z,24.60
2018-09-21T11:22:16.749Z,24.60
2018-09-21T11:24:50.882Z,24.80
2018-09-21T11:27:25.026Z,24.90
2018-09-21T11:29:59.430Z,24.90
2018-09-21T11:32:34.337Z,24.90
2018-09-21T11:35:08.276Z,24.90
2018-09-21T11:37:42.622Z,24.80
2018-09-21T11:40:16.515Z,24.90
2018-09-21T11:42:50.779Z,24.80
2018-09-21T11:45:28.115Z,25.00
2018-09-21T11:48:02.591Z,24.90
2018-09-21T11:50:36.753Z,24.80
2018-09-21T11:53:10.790Z,24.80
2018-09-21T11:55:44.940Z,24.80
2018-09-21T11:58:19.286Z,24.90
2018-09-21T12:00:53.450Z,24.70
2018-09-21T12:03:28.401Z,24.70
2018-09-21T12:06:02.823Z,24.70
2018-09-21T12:08:36.936Z,24.80
2018-09-21T12:11:11.108Z,24.80
2018-09-21T12:13:45.438Z,24.70
2018-09-21T12:16:19.726Z,24.70
2018-09-21T12:18:53.705Z,24.60
2018-09-21T12:21:28.393Z,24.40
2018-09-21T12:24:03.229Z,24.30
2018-09-21T12:26:37.278Z,24.30
2018-09-21T12:29:12.857Z,24.40
2018-09-21T12:31:48.716Z,24.30
2018-09-21T12:34:22.933Z,24.30
2018-09-21T12:36:57.269Z,24.00
2018-09-21T12:39:31.565Z,24.00
2018-09-21T12:42:06.085Z,23.70
2018-09-21T12:44:40.199Z,23.70
2018-09-21T12:47:14.537Z,23.70
2018-09-21T12:49:48.917Z,23.70
2018-09-21T12:52:22.845Z,23.80
2018-09-21T12:54:57.631Z,23.60
2018-09-21T12:57:31.705Z,23.60
2018-09-21T13:00:06.206Z,23.70
2018-09-21T13:02:40.298Z,23.60
2018-09-21T13:05:14.341Z,23.60
2018-09-21T13:07:48.472Z,23.40
2018-09-21T13:10:22.542Z,23.50
2018-09-21T13:12:57.489Z,23.50
2018-09-21T13:15:31.923Z,23.40
2018-09-21T13:18:06.802Z,23.30
2018-09-21T13:20:41.690Z,23.20
2018-09-21T13:23:15.795Z,23.20
2018-09-21T13:25:49.790Z,23.20
2018-09-21T13:28:24.261Z,23.20
2018-09-21T13:30:58.211Z,22.90
2018-09-21T13:33:32.764Z,21.30
2018-09-21T13:36:07.162Z,18.70
2018-09-21T13:38:41.213Z,17.70
2018-09-21T13:41:16.293Z,16.90
2018-09-21T13:43:50.469Z,16.90
2018-09-21T13:46:24.586Z,16.60
2018-09-21T13:49:00.299Z,16.50
2018-09-21T13:51:34.303Z,16.50
2018-09-21T13:54:08.308Z,16.70
2018-09-21T13:56:42.369Z,16.50
2018-09-21T13:59:16.616Z,16.60
2018-09-21T14:01:51.547Z,16.30
2018-09-21T14:04:25.627Z,16.30
2018-09-21T14:06:59.704Z,16.30
2018-09-21T14:09:33.896Z,16.30
2018-09-21T14:12:07.955Z,16.40
2018-09-21T14:14:42.103Z,16.30
2018-09-21T14:17:16.447Z,16.30
2018-09-21T14:19:50.697Z,16.20
2018-09-21T14:22:25.982Z,16.00
2018-09-21T14:25:00.022Z,16.00
2018-09-21T14:27:34.062Z,15.80
2018-09-21T14:30:08.201Z,15.80
2018-09-21T14:32:42.376Z,15.60
2018-09-21T14:35:16.537Z,15.50
2018-09-21T14:37:50.728Z,15.60
2018-09-21T14:40:25.323Z,15.60
2018-09-21T14:43:00.137Z,15.80
2018-09-21T14:45:34.596Z,15.70
2018-09-21T14:48:08.926Z,15.70
2018-09-21T14:50:43.612Z,15.60
2018-09-21T14:53:17.827Z,15.60
2018-09-21T14:55:51.967Z,15.70
2018-09-21T14:58:25.935Z,15.70
2018-09-21T15:01:00.202Z,15.80
2018-09-21T15:03:35.050Z,15.80
2018-09-21T15:06:09.556Z,15.80
2018-09-21T15:08:44.592Z,16.00
2018-09-21T15:11:18.599Z,16.00
2018-09-21T15:13:52.821Z,16.30
2018-09-21T15:16:26.950Z,16.50
2018-09-21T15:19:01.093Z,16.40
2018-09-21T15:21:36.191Z,16.20
2018-09-21T15:24:10.807Z,16.20
2018-09-21T15:26:45.434Z,16.30
2018-09-21T15:29:19.855Z,16.20
2018-09-21T15:31:54.274Z,16.40
2018-09-21T15:34:28.298Z,16.20
2018-09-21T15:37:02.322Z,16.30
2018-09-21T15:39:37.339Z,16.50
2018-09-21T15:42:11.502Z,16.50
2018-09-21T15:44:45.564Z,16.80
2018-09-21T15:47:19.619Z,16.90
2018-09-21T15:49:53.805Z,17.80
2018-09-21T15:52:29.238Z,18.90
2018-09-21T15:55:03.760Z,19.60
2018-09-21T15:57:38.811Z,19.50
2018-09-21T16:00:12.918Z,18.60
2018-09-21T16:02:47.126Z,18.20
2018-09-21T16:05:21.187Z,18.50
2018-09-21T16:07:56.142Z,18.90
2018-09-21T16:10:30.930Z,19.10
2018-09-21T16:13:04.931Z,19.10
2018-09-21T16:15:38.893Z,20.00
2018-09-21T16:18:13.344Z,21.10
2018-09-21T16:20:49.196Z,21.70
2018-09-21T16:23:23.439Z,20.10
2018-09-21T16:25:59.078Z,18.30
2018-09-21T16:28:34.065Z,18.20
2018-09-21T16:31:08.575Z,18.10
2018-09-21T16:33:42.610Z,17.70
2018-09-21T16:36:17.917Z,17.30
2018-09-21T16:38:52.194Z,17.30
2018-09-21T16:41:26.512Z,17.00
2018-09-21T16:44:01.246Z,16.90
2018-09-21T16:46:35.400Z,16.90
2018-09-21T16:49:10.815Z,16.70
2018-09-21T16:51:44.988Z,16.70
2018-09-21T16:54:19.436Z,16.70
2018-09-21T16:56:53.466Z,16.80
2018-09-21T16:59:28.326Z,16.70
2018-09-21T17:02:02.700Z,16.70
2018-09-21T17:04:37.881Z,16.70
2018-09-21T17:07:12.337Z,16.60
2018-09-21T17:09:46.360Z,16.60
2018-09-21T17:12:20.450Z,16.60
2018-09-21T17:14:55.006Z,16.60
2018-09-21T17:17:29.126Z,16.40
2018-09-21T17:20:04.199Z,16.40
2018-09-21T17:22:39.097Z,16.50
2018-09-21T17:25:13.254Z,16.50
2018-09-21T17:27:47.374Z,16.40
2018-09-21T17:30:21.534Z,16.50
2018-09-21T17:32:55.856Z,16.60
2018-09-21T17:35:30.057Z,16.40
2018-09-21T17:38:04.579Z,16.40
2018-09-21T17:40:38.519Z,16.50
2018-09-21T17:43:12.521Z,16.40
2018-09-21T17:45:46.541Z,16.50
2018-09-21T17:48:20.594Z,16.50
2018-09-21T17:50:55.047Z,16.40
2018-09-21T17:53:29.186Z,16.40
2018-09-21T17:56:03.176Z,16.60
2018-09-21T17:58:37.304Z,16.40
2018-09-21T18:01:11.342Z,16.50
2018-09-21T18:03:46.274Z,16.30
2018-09-21T18:06:20.567Z,16.30
2018-09-21T18:08:54.879Z,16.30
2018-09-21T18:11:28.879Z,16.40
2018-09-21T18:14:02.825Z,16.30
2018-09-21T18:16:36.899Z,16.30
2018-09-21T18:21:50.781Z,16.20
2018-09-21T18:24:25.718Z,16.20
2018-09-21T18:27:00.004Z,16.20
2018-09-21T18:29:34.907Z,16.00
2018-09-21T18:32:09.321Z,15.90
2018-09-21T18:34:43.521Z,15.90
2018-09-21T18:37:17.568Z,15.80
2018-09-21T18:39:51.838Z,15.80
2018-09-21T18:42:26.177Z,15.80
2018-09-21T18:45:00.365Z,15.80
2018-09-21T18:47:34.627Z,15.70
2018-09-21T18:50:09.496Z,15.70
2018-09-21T18:52:43.663Z,15.70
2018-09-21T18:55:17.972Z,15.80
2018-09-21T18:57:52.005Z,15.80
2018-09-21T19:00:26.235Z,15.70
2018-09-21T19:03:00.522Z,15.80
2018-09-21T19:05:34.714Z,15.80
2018-09-21T19:08:09.674Z,16.00
2018-09-21T19:10:44.030Z,16.00
2018-09-21T19:13:18.242Z,15.90
2018-09-21T19:15:52.774Z,15.90
2018-09-21T19:18:26.941Z,15.80
2018-09-21T19:21:01.093Z,15.90
2018-09-21T19:23:35.487Z,15.90
2018-09-21T19:26:09.600Z,16.00
2018-09-21T19:28:44.070Z,16.10
2018-09-21T19:31:18.168Z,16.00
2018-09-21T19:33:52.242Z,16.00
2018-09-21T19:36:26.357Z,15.90
2018-09-21T19:39:00.516Z,16.00
2018-09-21T19:41:35.291Z,15.90
2018-09-21T19:44:09.592Z,15.90
2018-09-21T19:46:45.166Z,15.90
2018-09-21T19:49:20.334Z,15.70
2018-09-21T19:51:54.704Z,15.70
2018-09-21T19:54:29.669Z,15.50
2018-09-21T19:57:04.128Z,15.50
2018-09-21T19:59:39.247Z,15.60
2018-09-21T20:02:13.656Z,15.60
2018-09-21T20:04:49.575Z,15.50
2018-09-21T20:07:24.651Z,15.50
2018-09-21T20:09:58.813Z,15.30
2018-09-21T20:12:33.525Z,15.10
2018-09-21T20:15:08.038Z,15.10
2018-09-21T20:17:42.793Z,15.20
2018-09-21T20:20:16.889Z,15.20
2018-09-21T20:22:51.161Z,15.20
2018-09-21T20:25:25.470Z,15.10
2018-09-21T20:27:59.609Z,15.00
2018-09-21T20:30:33.618Z,15.10
2018-09-21T20:33:07.731Z,15.00
2018-09-21T20:35:41.693Z,15.10
2018-09-21T20:38:15.868Z,15.10
2018-09-21T20:40:50.108Z,15.00
2018-09-21T20:43:24.126Z,15.00
2018-09-21T20:45:58.374Z,15.00
2018-09-21T20:48:32.503Z,15.00
2018-09-21T20:51:06.556Z,15.00
2018-09-21T20:53:41.082Z,15.00
2018-09-21T20:56:15.068Z,15.00
2018-09-21T20:58:49.168Z,15.00
2018-09-21T21:01:23.189Z,15.00
2018-09-21T21:03:57.420Z,15.00
2018-09-21T21:06:31.762Z,15.00
2018-09-21T21:09:06.015Z,14.90
2018-09-21T21:11:40.050Z,15.00
2018-09-21T21:14:14.080Z,15.00
2018-09-21T21:16:49.089Z,15.00
2018-09-21T21:19:22.958Z,14.90
2018-09-21T21:21:57.177Z,14.80
2018-09-21T21:24:31.189Z,14.80
2018-09-21T21:27:05.331Z,14.80
2018-09-21T21:29:42.643Z,14.80
2018-09-21T21:32:17.394Z,14.70
2018-09-21T21:34:51.370Z,14.70
2018-09-21T21:37:26.198Z,14.70
2018-09-21T21:40:00.324Z,14.70
2018-09-21T21:42:34.342Z,14.70
2018-09-21T21:45:08.386Z,14.70
2018-09-21T21:47:42.558Z,14.70
2018-09-21T21:50:16.666Z,14.70
2018-09-21T21:52:50.963Z,14.70
2018-09-21T21:55:26.962Z,14.60
2018-09-21T21:58:03.934Z,14.60
2018-09-21T22:00:38.168Z,14.60
2018-09-21T22:03:12.512Z,14.50
2018-09-21T22:05:46.557Z,14.50
2018-09-21T22:08:20.585Z,14.50
2018-09-21T22:10:55.029Z,14.50
2018-09-21T22:13:29.437Z,14.50
2018-09-21T22:16:03.562Z,14.40
2018-09-21T22:18:38.210Z,14.30
2018-09-21T22:21:15.320Z,14.40
2018-09-21T22:23:49.398Z,14.40
2018-09-21T22:26:23.518Z,14.30
2018-09-21T22:28:57.620Z,14.30
2018-09-21T22:31:31.765Z,14.20
2018-09-21T22:34:06.074Z,14.10
2018-09-21T22:36:40.681Z,14.10
2018-09-21T22:39:15.153Z,14.10
2018-09-21T22:41:49.431Z,14.00
2018-09-21T22:44:23.661Z,13.90
2018-09-21T22:46:58.713Z,13.90
2018-09-21T22:49:32.816Z,13.90
2018-09-21T22:52:07.051Z,13.90
2018-09-21T22:54:40.918Z,13.90
2018-09-21T22:57:14.986Z,14.00
2018-09-21T22:59:49.150Z,13.90
2018-09-21T23:02:23.194Z,13.80
2018-09-21T23:04:57.103Z,13.90
2018-09-21T23:07:31.188Z,13.80
2018-09-21T23:10:05.534Z,13.80
2018-09-21T23:12:39.799Z,13.80
2018-09-21T23:15:13.972Z,13.80
2018-09-21T23:17:48.268Z,13.80
2018-09-21T23:20:22.537Z,13.80
2018-09-21T23:22:56.567Z,13.70
2018-09-21T23:25:30.502Z,13.70
2018-09-21T23:28:04.863Z,13.80
2018-09-21T23:30:39.374Z,13.70
2018-09-21T23:33:13.488Z,13.60
2018-09-21T23:35:48.443Z,13.70
2018-09-21T23:38:22.778Z,13.60
2018-09-21T23:40:56.953Z,13.50
2018-09-21T23:43:31.105Z,13.50
2018-09-21T23:46:05.236Z,13.50
2018-09-21T23:48:39.570Z,13.50
2018-09-21T23:51:13.865Z,13.50
2018-09-21T23:53:48.001Z,13.40
2018-09-21T23:56:22.102Z,13.50
2018-09-21T23:58:57.066Z,13.20
